sensor_id;sensor_type;location;lat;lon;timestamp;P1;durP1;ratioP1;P2;durP2;ratioP2
38089;SDS011;23904;52.322;10.232;2022-09-13T00:00:35;7.13;;;3.45;;
38089;SDS011;23904;52.322;10.232;2022-09-13T00:03:02;4.22;;;2.92;;
38089;SDS011;23904;52.322;10.232;2022-09-13T00:05:28;7.22;;;3.65;;
38089;SDS011;23904;52.322;10.232;2022-09-13T00:07:54;5.05;;;3.03;;
38089;SDS011;23904;52.322;10.232;2022-09-13T00:10:21;5.18;;;3.75;;
38089;SDS011;23904;52.322;10.232;2022-09-13T00:12:48;4.72;;;3.40;;
38089;SDS011;23904;52.322;10.232;2022-09-13T00:15:14;7.00;;;3.58;;
38089;SDS011;23904;52.322;10.232;2022-09-13T00:17:39;6.68;;;3.05;;
38089;SDS011;23904;52.322;10.232;2022-09-13T00:20:05;5.63;;;3.75;;
38089;SDS011;23904;52.322;10.232;2022-09-13T00:22:32;4.75;;;3.38;;
38089;SDS011;23904;52.322;10.232;2022-09-13T00:24:58;4.55;;;3.13;;
38089;SDS011;23904;52.322;10.232;2022-09-13T00:27:24;6.13;;;3.47;;
38089;SDS011;23904;52.322;10.232;2022-09-13T00:29:50;4.13;;;3.08;;
38089;SDS011;23904;52.322;10.232;2022-09-13T00:32:15;5.15;;;3.38;;
38089;SDS011;23904;52.322;10.232;2022-09-13T00:34:41;4.43;;;2.72;;
38089;SDS011;23904;52.322;10.232;2022-09-13T00:37:07;5.40;;;3.20;;
38089;SDS011;23904;52.322;10.232;2022-09-13T00:39:33;5.05;;;3.47;;
38089;SDS011;23904;52.322;10.232;2022-09-13T00:42:00;4.47;;;2.75;;
38089;SDS011;23904;52.322;10.232;2022-09-13T00:50:19;5.25;;;3.55;;
38089;SDS011;23904;52.322;10.232;2022-09-13T00:53:11;6.20;;;3.80;;
38089;SDS011;23904;52.322;10.232;2022-09-13T00:55:51;5.88;;;4.22;;
38089;SDS011;23904;52.322;10.232;2022-09-13T00:58:45;6.10;;;3.63;;
38089;SDS011;23904;52.322;10.232;2022-09-13T01:01:34;6.13;;;3.60;;
38089;SDS011;23904;52.322;10.232;2022-09-13T01:04:06;6.93;;;4.00;;
38089;SDS011;23904;52.322;10.232;2022-09-13T01:06:32;4.30;;;3.47;;
38089;SDS011;23904;52.322;10.232;2022-09-13T01:09:01;6.38;;;3.38;;
38089;SDS011;23904;52.322;10.232;2022-09-13T01:11:29;5.93;;;3.50;;
38089;SDS011;23904;52.322;10.232;2022-09-13T01:14:06;6.15;;;3.47;;
38089;SDS011;23904;52.322;10.232;2022-09-13T01:16:32;7.30;;;3.50;;
38089;SDS011;23904;52.322;10.232;2022-09-13T01:18:58;5.18;;;3.50;;
38089;SDS011;23904;52.322;10.232;2022-09-13T01:27:31;7.32;;;4.10;;
38089;SDS011;23904;52.322;10.232;2022-09-13T01:30:35;7.57;;;3.72;;
38089;SDS011;23904;52.322;10.232;2022-09-13T01:33:20;5.47;;;3.42;;
38089;SDS011;23904;52.322;10.232;2022-09-13T01:36:28;5.20;;;3.85;;
38089;SDS011;23904;52.322;10.232;2022-09-13T01:48:16;4.43;;;3.40;;
38089;SDS011;23904;52.322;10.232;2022-09-13T01:51:07;5.68;;;3.83;;
38089;SDS011;23904;52.322;10.232;2022-09-13T01:53:57;5.55;;;3.70;;
38089;SDS011;23904;52.322;10.232;2022-09-13T01:56:28;6.10;;;3.97;;
38089;SDS011;23904;52.322;10.232;2022-09-13T01:59:10;5.20;;;3.65;;
38089;SDS011;23904;52.322;10.232;2022-09-13T02:01:54;10.52;;;3.85;;
38089;SDS011;23904;52.322;10.232;2022-09-13T02:04:31;5.85;;;3.65;;
38089;SDS011;23904;52.322;10.232;2022-09-13T02:07:12;5.32;;;3.78;;
38089;SDS011;23904;52.322;10.232;2022-09-13T02:09:45;6.63;;;4.03;;
38089;SDS011;23904;52.322;10.232;2022-09-13T02:12:18;5.80;;;3.90;;
38089;SDS011;23904;52.322;10.232;2022-09-13T02:14:50;7.05;;;3.97;;
38089;SDS011;23904;52.322;10.232;2022-09-13T02:17:41;6.85;;;3.67;;
38089;SDS011;23904;52.322;10.232;2022-09-13T02:20:21;5.70;;;4.07;;
38089;SDS011;23904;52.322;10.232;2022-09-13T02:22:55;4.82;;;3.55;;
38089;SDS011;23904;52.322;10.232;2022-09-13T02:25:27;6.00;;;3.97;;
38089;SDS011;23904;52.322;10.232;2022-09-13T02:27:59;6.25;;;4.60;;
38089;SDS011;23904;52.322;10.232;2022-09-13T02:33:00;5.88;;;4.20;;
38089;SDS011;23904;52.322;10.232;2022-09-13T02:35:35;5.03;;;3.88;;
38089;SDS011;23904;52.322;10.232;2022-09-13T02:38:12;8.25;;;4.90;;
38089;SDS011;23904;52.322;10.232;2022-09-13T02:40:52;6.50;;;4.05;;
38089;SDS011;23904;52.322;10.232;2022-09-13T02:43:33;7.63;;;5.13;;
38089;SDS011;23904;52.322;10.232;2022-09-13T02:46:31;7.82;;;4.13;;
38089;SDS011;23904;52.322;10.232;2022-09-13T02:49:25;7.03;;;4.00;;
38089;SDS011;23904;52.322;10.232;2022-09-13T02:52:20;5.88;;;3.83;;
38089;SDS011;23904;52.322;10.232;2022-09-13T02:55:19;5.68;;;4.47;;
38089;SDS011;23904;52.322;10.232;2022-09-13T02:58:26;6.68;;;5.03;;
38089;SDS011;23904;52.322;10.232;2022-09-13T03:01:10;6.30;;;4.28;;
38089;SDS011;23904;52.322;10.232;2022-09-13T03:03:36;6.28;;;4.35;;
38089;SDS011;23904;52.322;10.232;2022-09-13T03:06:01;8.57;;;4.95;;
38089;SDS011;23904;52.322;10.232;2022-09-13T03:08:27;6.60;;;4.80;;
38089;SDS011;23904;52.322;10.232;2022-09-13T03:13:47;10.02;;;5.43;;
38089;SDS011;23904;52.322;10.232;2022-09-13T03:16:42;9.52;;;5.70;;
38089;SDS011;23904;52.322;10.232;2022-09-13T03:31:08;15.95;;;6.97;;
38089;SDS011;23904;52.322;10.232;2022-09-13T03:39:29;9.75;;;7.00;;
38089;SDS011;23904;52.322;10.232;2022-09-13T03:42:08;8.35;;;6.65;;
38089;SDS011;23904;52.322;10.232;2022-09-13T03:44:55;9.38;;;6.55;;
38089;SDS011;23904;52.322;10.232;2022-09-13T03:47:26;8.38;;;6.10;;
38089;SDS011;23904;52.322;10.232;2022-09-13T03:49:56;12.32;;;6.80;;
38089;SDS011;23904;52.322;10.232;2022-09-13T03:52:23;14.88;;;6.90;;
38089;SDS011;23904;52.322;10.232;2022-09-13T03:54:50;13.27;;;7.75;;
38089;SDS011;23904;52.322;10.232;2022-09-13T03:57:19;9.77;;;6.32;;
38089;SDS011;23904;52.322;10.232;2022-09-13T03:59:47;10.43;;;6.80;;
38089;SDS011;23904;52.322;10.232;2022-09-13T04:02:18;13.55;;;7.03;;
38089;SDS011;23904;52.322;10.232;2022-09-13T04:04:47;11.77;;;7.25;;
38089;SDS011;23904;52.322;10.232;2022-09-13T04:07:18;9.80;;;6.60;;
38089;SDS011;23904;52.322;10.232;2022-09-13T04:09:46;9.05;;;6.25;;
38089;SDS011;23904;52.322;10.232;2022-09-13T04:12:12;13.80;;;6.97;;
38089;SDS011;23904;52.322;10.232;2022-09-13T04:14:39;11.02;;;7.25;;
38089;SDS011;23904;52.322;10.232;2022-09-13T04:17:07;13.57;;;7.93;;
38089;SDS011;23904;52.322;10.232;2022-09-13T04:19:32;11.88;;;8.15;;
38089;SDS011;23904;52.322;10.232;2022-09-13T04:21:58;11.93;;;8.20;;
38089;SDS011;23904;52.322;10.232;2022-09-13T04:24:27;13.30;;;8.05;;
38089;SDS011;23904;52.322;10.232;2022-09-13T04:26:55;10.05;;;7.72;;
38089;SDS011;23904;52.322;10.232;2022-09-13T04:29:22;15.07;;;7.88;;
38089;SDS011;23904;52.322;10.232;2022-09-13T04:31:49;9.45;;;7.28;;
38089;SDS011;23904;52.322;10.232;2022-09-13T04:34:17;12.05;;;7.15;;
38089;SDS011;23904;52.322;10.232;2022-09-13T04:36:43;9.63;;;7.13;;
38089;SDS011;23904;52.322;10.232;2022-09-13T04:39:10;11.00;;;7.93;;
38089;SDS011;23904;52.322;10.232;2022-09-13T04:41:38;8.65;;;7.47;;
38089;SDS011;23904;52.322;10.232;2022-09-13T04:44:05;11.98;;;7.60;;
38089;SDS011;23904;52.322;10.232;2022-09-13T04:46:30;11.95;;;7.32;;
38089;SDS011;23904;52.322;10.232;2022-09-13T04:48:56;10.70;;;7.95;;
38089;SDS011;23904;52.322;10.232;2022-09-13T04:51:22;11.90;;;7.80;;
38089;SDS011;23904;52.322;10.232;2022-09-13T04:53:52;12.35;;;7.90;;
38089;SDS011;23904;52.322;10.232;2022-09-13T04:56:19;11.32;;;7.72;;
38089;SDS011;23904;52.322;10.232;2022-09-13T04:58:47;10.68;;;8.25;;
38089;SDS011;23904;52.322;10.232;2022-09-13T05:01:15;15.15;;;9.50;;
38089;SDS011;23904;52.322;10.232;2022-09-13T05:03:41;15.63;;;8.20;;
38089;SDS011;23904;52.322;10.232;2022-09-13T05:06:07;10.88;;;7.70;;
38089;SDS011;23904;52.322;10.232;2022-09-13T05:08:36;10.68;;;7.43;;
38089;SDS011;23904;52.322;10.232;2022-09-13T05:11:03;9.48;;;7.45;;
38089;SDS011;23904;52.322;10.232;2022-09-13T05:13:30;12.23;;;7.88;;
38089;SDS011;23904;52.322;10.232;2022-09-13T05:15:57;11.48;;;8.00;;
38089;SDS011;23904;52.322;10.232;2022-09-13T05:18:28;11.83;;;8.93;;
38089;SDS011;23904;52.322;10.232;2022-09-13T05:20:57;11.55;;;8.02;;
38089;SDS011;23904;52.322;10.232;2022-09-13T05:23:24;10.57;;;7.40;;
38089;SDS011;23904;52.322;10.232;2022-09-13T05:25:52;10.35;;;7.60;;
38089;SDS011;23904;52.322;10.232;2022-09-13T05:28:22;9.88;;;7.72;;
38089;SDS011;23904;52.322;10.232;2022-09-13T05:33:46;11.77;;;8.05;;
38089;SDS011;23904;52.322;10.232;2022-09-13T05:36:17;12.60;;;7.97;;
38089;SDS011;23904;52.322;10.232;2022-09-13T05:38:43;10.82;;;8.55;;
38089;SDS011;23904;52.322;10.232;2022-09-13T05:41:09;9.35;;;7.85;;
38089;SDS011;23904;52.322;10.232;2022-09-13T05:43:34;15.40;;;8.90;;
38089;SDS011;23904;52.322;10.232;2022-09-13T05:48:37;15.55;;;8.77;;
38089;SDS011;23904;52.322;10.232;2022-09-13T05:53:33;9.85;;;8.02;;
38089;SDS011;23904;52.322;10.232;2022-09-13T05:55:59;12.25;;;8.20;;
38089;SDS011;23904;52.322;10.232;2022-09-13T05:58:24;11.77;;;8.35;;
38089;SDS011;23904;52.322;10.232;2022-09-13T06:00:53;10.23;;;7.72;;
38089;SDS011;23904;52.322;10.232;2022-09-13T06:03:21;10.85;;;7.85;;
38089;SDS011;23904;52.322;10.232;2022-09-13T06:05:48;11.15;;;8.48;;
38089;SDS011;23904;52.322;10.232;2022-09-13T06:08:19;11.70;;;8.82;;
38089;SDS011;23904;52.322;10.232;2022-09-13T06:10:52;14.57;;;9.13;;
38089;SDS011;23904;52.322;10.232;2022-09-13T06:13:22;9.05;;;8.07;;
38089;SDS011;23904;52.322;10.232;2022-09-13T06:15:49;11.00;;;8.02;;
38089;SDS011;23904;52.322;10.232;2022-09-13T06:18:15;11.82;;;8.13;;
38089;SDS011;23904;52.322;10.232;2022-09-13T06:20:41;9.43;;;7.63;;
38089;SDS011;23904;52.322;10.232;2022-09-13T06:23:08;9.45;;;7.43;;
38089;SDS011;23904;52.322;10.232;2022-09-13T06:25:33;9.73;;;7.28;;
38089;SDS011;23904;52.322;10.232;2022-09-13T06:27:59;9.43;;;7.93;;
38089;SDS011;23904;52.322;10.232;2022-09-13T06:30:25;9.98;;;7.63;;
38089;SDS011;23904;52.322;10.232;2022-09-13T06:32:50;11.35;;;8.25;;
38089;SDS011;23904;52.322;10.232;2022-09-13T06:35:16;10.18;;;7.78;;
38089;SDS011;23904;52.322;10.232;2022-09-13T06:37:42;11.20;;;8.07;;
38089;SDS011;23904;52.322;10.232;2022-09-13T06:40:08;10.48;;;7.95;;
38089;SDS011;23904;52.322;10.232;2022-09-13T06:42:34;9.93;;;7.88;;
38089;SDS011;23904;52.322;10.232;2022-09-13T06:45:01;15.23;;;8.45;;
38089;SDS011;23904;52.322;10.232;2022-09-13T06:47:28;18.60;;;8.30;;
38089;SDS011;23904;52.322;10.232;2022-09-13T06:49:54;11.45;;;8.80;;
38089;SDS011;23904;52.322;10.232;2022-09-13T06:52:21;11.55;;;7.85;;
38089;SDS011;23904;52.322;10.232;2022-09-13T06:54:50;11.18;;;8.45;;
38089;SDS011;23904;52.322;10.232;2022-09-13T06:57:16;12.25;;;8.43;;
38089;SDS011;23904;52.322;10.232;2022-09-13T06:59:41;9.52;;;7.22;;
38089;SDS011;23904;52.322;10.232;2022-09-13T07:02:09;10.40;;;7.28;;
38089;SDS011;23904;52.322;10.232;2022-09-13T07:04:34;13.15;;;7.70;;
38089;SDS011;23904;52.322;10.232;2022-09-13T07:07:00;9.98;;;7.72;;
38089;SDS011;23904;52.322;10.232;2022-09-13T07:09:26;9.93;;;7.22;;
38089;SDS011;23904;52.322;10.232;2022-09-13T07:11:53;10.35;;;7.53;;
38089;SDS011;23904;52.322;10.232;2022-09-13T07:14:20;13.10;;;7.70;;
38089;SDS011;23904;52.322;10.232;2022-09-13T07:16:48;9.05;;;6.88;;
38089;SDS011;23904;52.322;10.232;2022-09-13T07:19:19;7.65;;;5.82;;
38089;SDS011;23904;52.322;10.232;2022-09-13T07:21:51;17.02;;;7.22;;
38089;SDS011;23904;52.322;10.232;2022-09-13T07:24:18;7.85;;;6.40;;
38089;SDS011;23904;52.322;10.232;2022-09-13T07:26:45;12.05;;;7.10;;
38089;SDS011;23904;52.322;10.232;2022-09-13T07:29:12;14.02;;;6.65;;
38089;SDS011;23904;52.322;10.232;2022-09-13T07:31:43;7.82;;;6.45;;
38089;SDS011;23904;52.322;10.232;2022-09-13T07:34:12;10.35;;;6.93;;
38089;SDS011;23904;52.322;10.232;2022-09-13T07:36:41;7.40;;;6.20;;
38089;SDS011;23904;52.322;10.232;2022-09-13T07:39:08;9.48;;;7.30;;
38089;SDS011;23904;52.322;10.232;2022-09-13T07:41:37;11.80;;;6.57;;
38089;SDS011;23904;52.322;10.232;2022-09-13T07:44:03;8.85;;;6.93;;
38089;SDS011;23904;52.322;10.232;2022-09-13T07:46:32;10.02;;;6.57;;
38089;SDS011;23904;52.322;10.232;2022-09-13T07:49:07;10.07;;;6.78;;
38089;SDS011;23904;52.322;10.232;2022-09-13T07:51:36;8.48;;;6.63;;
38089;SDS011;23904;52.322;10.232;2022-09-13T07:54:05;8.00;;;6.55;;
38089;SDS011;23904;52.322;10.232;2022-09-13T07:56:38;11.10;;;7.10;;
38089;SDS011;23904;52.322;10.232;2022-09-13T07:59:06;9.75;;;6.65;;
38089;SDS011;23904;52.322;10.232;2022-09-13T08:01:39;11.57;;;6.90;;
38089;SDS011;23904;52.322;10.232;2022-09-13T08:04:07;8.80;;;6.22;;
38089;SDS011;23904;52.322;10.232;2022-09-13T08:06:39;10.07;;;7.47;;
38089;SDS011;23904;52.322;10.232;2022-09-13T08:09:06;8.25;;;6.50;;
38089;SDS011;23904;52.322;10.232;2022-09-13T08:12:06;11.63;;;7.07;;
38089;SDS011;23904;52.322;10.232;2022-09-13T08:14:25;10.20;;;6.97;;
38089;SDS011;23904;52.322;10.232;2022-09-13T08:16:54;17.77;;;6.80;;
38089;SDS011;23904;52.322;10.232;2022-09-13T08:19:21;14.95;;;8.93;;
38089;SDS011;23904;52.322;10.232;2022-09-13T08:21:46;10.00;;;6.38;;
38089;SDS011;23904;52.322;10.232;2022-09-13T08:24:19;10.63;;;6.95;;
38089;SDS011;23904;52.322;10.232;2022-09-13T08:26:45;11.95;;;8.02;;
38089;SDS011;23904;52.322;10.232;2022-09-13T08:29:12;11.75;;;7.25;;
38089;SDS011;23904;52.322;10.232;2022-09-13T08:31:39;7.95;;;6.97;;
38089;SDS011;23904;52.322;10.232;2022-09-13T08:34:06;9.02;;;7.03;;
38089;SDS011;23904;52.322;10.232;2022-09-13T08:36:36;12.13;;;7.50;;
38089;SDS011;23904;52.322;10.232;2022-09-13T08:39:02;11.40;;;7.63;;
38089;SDS011;23904;52.322;10.232;2022-09-13T08:41:32;8.93;;;6.93;;
38089;SDS011;23904;52.322;10.232;2022-09-13T08:47:16;8.60;;;6.68;;
38089;SDS011;23904;52.322;10.232;2022-09-13T08:49:51;10.85;;;7.93;;
38089;SDS011;23904;52.322;10.232;2022-09-13T08:52:43;10.07;;;7.30;;
38089;SDS011;23904;52.322;10.232;2022-09-13T08:55:24;8.68;;;7.40;;
38089;SDS011;23904;52.322;10.232;2022-09-13T08:58:10;11.57;;;8.20;;
38089;SDS011;23904;52.322;10.232;2022-09-13T09:01:02;11.32;;;8.55;;
38089;SDS011;23904;52.322;10.232;2022-09-13T09:06:38;10.05;;;8.38;;
38089;SDS011;23904;52.322;10.232;2022-09-13T09:09:07;11.75;;;9.38;;
38089;SDS011;23904;52.322;10.232;2022-09-13T09:11:47;11.05;;;8.45;;
38089;SDS011;23904;52.322;10.232;2022-09-13T09:14:43;11.77;;;8.50;;
38089;SDS011;23904;52.322;10.232;2022-09-13T09:17:23;11.68;;;9.20;;
38089;SDS011;23904;52.322;10.232;2022-09-13T09:20:40;12.80;;;7.68;;
38089;SDS011;23904;52.322;10.232;2022-09-13T09:23:11;13.77;;;8.23;;
38089;SDS011;23904;52.322;10.232;2022-09-13T09:25:40;11.20;;;8.30;;
38089;SDS011;23904;52.322;10.232;2022-09-13T09:28:13;14.05;;;9.02;;
38089;SDS011;23904;52.322;10.232;2022-09-13T09:36:35;11.80;;;7.95;;
38089;SDS011;23904;52.322;10.232;2022-09-13T09:39:18;15.10;;;8.88;;
38089;SDS011;23904;52.322;10.232;2022-09-13T09:41:44;10.02;;;7.80;;
38089;SDS011;23904;52.322;10.232;2022-09-13T09:44:17;10.73;;;8.63;;
38089;SDS011;23904;52.322;10.232;2022-09-13T09:46:55;12.15;;;8.68;;
38089;SDS011;23904;52.322;10.232;2022-09-13T09:49:26;12.57;;;8.98;;
38089;SDS011;23904;52.322;10.232;2022-09-13T09:52:21;12.60;;;8.95;;
38089;SDS011;23904;52.322;10.232;2022-09-13T09:54:55;14.13;;;8.52;;
38089;SDS011;23904;52.322;10.232;2022-09-13T09:58:11;10.50;;;8.20;;
38089;SDS011;23904;52.322;10.232;2022-09-13T10:00:21;11.60;;;8.40;;
38089;SDS011;23904;52.322;10.232;2022-09-13T10:02:55;9.80;;;8.27;;
38089;SDS011;23904;52.322;10.232;2022-09-13T10:05:30;10.25;;;8.13;;
38089;SDS011;23904;52.322;10.232;2022-09-13T10:07:58;15.27;;;10.05;;
38089;SDS011;23904;52.322;10.232;2022-09-13T10:10:35;9.10;;;7.35;;
38089;SDS011;23904;52.322;10.232;2022-09-13T10:13:03;14.10;;;8.70;;
38089;SDS011;23904;52.322;10.232;2022-09-13T10:15:36;11.95;;;8.07;;
38089;SDS011;23904;52.322;10.232;2022-09-13T10:18:20;11.43;;;7.60;;
38089;SDS011;23904;52.322;10.232;2022-09-13T10:23:46;16.48;;;10.57;;
38089;SDS011;23904;52.322;10.232;2022-09-13T10:26:18;15.82;;;9.88;;
38089;SDS011;23904;52.322;10.232;2022-09-13T10:31:35;17.08;;;10.13;;
38089;SDS011;23904;52.322;10.232;2022-09-13T10:34:10;13.63;;;9.20;;
38089;SDS011;23904;52.322;10.232;2022-09-13T10:36:49;14.25;;;9.93;;
38089;SDS011;23904;52.322;10.232;2022-09-13T10:39:22;16.80;;;10.77;;
38089;SDS011;23904;52.322;10.232;2022-09-13T10:42:00;13.38;;;9.55;;
38089;SDS011;23904;52.322;10.232;2022-09-13T10:44:45;16.67;;;10.23;;
38089;SDS011;23904;52.322;10.232;2022-09-13T10:47:43;13.70;;;10.05;;
38089;SDS011;23904;52.322;10.232;2022-09-13T10:50:19;14.52;;;11.02;;
38089;SDS011;23904;52.322;10.232;2022-09-13T10:52:48;18.42;;;11.00;;
38089;SDS011;23904;52.322;10.232;2022-09-13T11:00:11;12.20;;;9.10;;
38089;SDS011;23904;52.322;10.232;2022-09-13T11:08:32;13.65;;;9.88;;
38089;SDS011;23904;52.322;10.232;2022-09-13T11:11:43;16.15;;;9.43;;
38089;SDS011;23904;52.322;10.232;2022-09-13T11:17:07;12.80;;;9.23;;
38089;SDS011;23904;52.322;10.232;2022-09-13T11:29:04;12.10;;;7.27;;
38089;SDS011;23904;52.322;10.232;2022-09-13T11:31:54;13.18;;;8.95;;
38089;SDS011;23904;52.322;10.232;2022-09-13T11:34:44;11.27;;;9.00;;
38089;SDS011;23904;52.322;10.232;2022-09-13T11:50:14;14.07;;;9.38;;
38089;SDS011;23904;52.322;10.232;2022-09-13T11:56:28;15.52;;;10.05;;
38089;SDS011;23904;52.322;10.232;2022-09-13T11:59:09;15.38;;;9.80;;
38089;SDS011;23904;52.322;10.232;2022-09-13T12:04:53;16.80;;;13.82;;
38089;SDS011;23904;52.322;10.232;2022-09-13T12:07:27;19.90;;;13.68;;
38089;SDS011;23904;52.322;10.232;2022-09-13T12:10:14;26.00;;;16.05;;
38089;SDS011;23904;52.322;10.232;2022-09-13T12:12:51;17.55;;;12.55;;
38089;SDS011;23904;52.322;10.232;2022-09-13T12:15:21;23.73;;;14.25;;
38089;SDS011;23904;52.322;10.232;2022-09-13T12:18:04;20.10;;;13.95;;
38089;SDS011;23904;52.322;10.232;2022-09-13T12:20:47;18.88;;;13.35;;
38089;SDS011;23904;52.322;10.232;2022-09-13T12:23:18;16.02;;;12.23;;
38089;SDS011;23904;52.322;10.232;2022-09-13T12:26:55;23.13;;;15.73;;
38089;SDS011;23904;52.322;10.232;2022-09-13T12:32:05;17.25;;;12.00;;
38089;SDS011;23904;52.322;10.232;2022-09-13T12:34:37;20.27;;;15.48;;
38089;SDS011;23904;52.322;10.232;2022-09-13T12:37:35;20.27;;;14.00;;
38089;SDS011;23904;52.322;10.232;2022-09-13T12:40:38;20.27;;;13.68;;
38089;SDS011;23904;52.322;10.232;2022-09-13T12:43:18;16.27;;;12.82;;
38089;SDS011;23904;52.322;10.232;2022-09-13T12:46:44;18.02;;;14.82;;
38089;SDS011;23904;52.322;10.232;2022-09-13T12:49:42;21.65;;;13.65;;
38089;SDS011;23904;52.322;10.232;2022-09-13T13:03:44;18.95;;;15.10;;
38089;SDS011;23904;52.322;10.232;2022-09-13T13:12:00;17.23;;;13.13;;
38089;SDS011;23904;52.322;10.232;2022-09-13T13:29:21;18.10;;;14.73;;
38089;SDS011;23904;52.322;10.232;2022-09-13T13:34:27;19.65;;;17.40;;
38089;SDS011;23904;52.322;10.232;2022-09-13T13:36:56;19.25;;;16.48;;
38089;SDS011;23904;52.322;10.232;2022-09-13T13:39:34;23.95;;;18.73;;
38089;SDS011;23904;52.322;10.232;2022-09-13T13:49:42;23.25;;;16.45;;
38089;SDS011;23904;52.322;10.232;2022-09-13T13:57:51;17.80;;;14.48;;
38089;SDS011;23904;52.322;10.232;2022-09-13T14:00:26;15.05;;;12.93;;
38089;SDS011;23904;52.322;10.232;2022-09-13T14:08:31;13.80;;;10.93;;
38089;SDS011;23904;52.322;10.232;2022-09-13T14:14:16;12.23;;;9.85;;
38089;SDS011;23904;52.322;10.232;2022-09-13T14:20:10;10.45;;;7.80;;
38089;SDS011;23904;52.322;10.232;2022-09-13T14:22:40;11.13;;;7.50;;
38089;SDS011;23904;52.322;10.232;2022-09-13T14:25:21;11.00;;;7.93;;
38089;SDS011;23904;52.322;10.232;2022-09-13T14:27:49;11.38;;;7.55;;
38089;SDS011;23904;52.322;10.232;2022-09-13T14:30:21;7.63;;;6.82;;
38089;SDS011;23904;52.322;10.232;2022-09-13T14:32:57;6.78;;;5.60;;
38089;SDS011;23904;52.322;10.232;2022-09-13T14:37:55;6.47;;;3.90;;
38089;SDS011;23904;52.322;10.232;2022-09-13T14:40:35;6.20;;;4.57;;
38089;SDS011;23904;52.322;10.232;2022-09-13T14:43:04;4.25;;;3.58;;
38089;SDS011;23904;52.322;10.232;2022-09-13T14:45:40;6.10;;;4.80;;
38089;SDS011;23904;52.322;10.232;2022-09-13T14:48:11;5.85;;;4.10;;
38089;SDS011;23904;52.322;10.232;2022-09-13T14:50:53;7.30;;;4.40;;
38089;SDS011;23904;52.322;10.232;2022-09-13T14:53:23;6.53;;;4.72;;
38089;SDS011;23904;52.322;10.232;2022-09-13T14:55:53;6.40;;;4.97;;
38089;SDS011;23904;52.322;10.232;2022-09-13T14:58:25;6.20;;;4.70;;
38089;SDS011;23904;52.322;10.232;2022-09-13T15:01:17;7.07;;;4.90;;
38089;SDS011;23904;52.322;10.232;2022-09-13T15:03:50;4.97;;;4.35;;
38089;SDS011;23904;52.322;10.232;2022-09-13T15:06:24;6.10;;;4.65;;
38089;SDS011;23904;52.322;10.232;2022-09-13T15:09:00;6.82;;;4.38;;
38089;SDS011;23904;52.322;10.232;2022-09-13T15:11:38;4.65;;;3.28;;
38089;SDS011;23904;52.322;10.232;2022-09-13T15:14:24;4.38;;;2.50;;
38089;SDS011;23904;52.322;10.232;2022-09-13T15:19:35;3.25;;;1.90;;
38089;SDS011;23904;52.322;10.232;2022-09-13T15:22:13;4.03;;;1.98;;
38089;SDS011;23904;52.322;10.232;2022-09-13T15:24:52;4.18;;;1.90;;
38089;SDS011;23904;52.322;10.232;2022-09-13T15:27:25;2.92;;;1.63;;
38089;SDS011;23904;52.322;10.232;2022-09-13T15:30:18;3.83;;;1.65;;
38089;SDS011;23904;52.322;10.232;2022-09-13T15:32:55;3.45;;;1.52;;
38089;SDS011;23904;52.322;10.232;2022-09-13T15:35:50;4.18;;;1.70;;
38089;SDS011;23904;52.322;10.232;2022-09-13T15:38:28;4.05;;;1.75;;
38089;SDS011;23904;52.322;10.232;2022-09-13T15:40:57;2.47;;;1.60;;
38089;SDS011;23904;52.322;10.232;2022-09-13T15:43:38;3.70;;;1.67;;
38089;SDS011;23904;52.322;10.232;2022-09-13T15:46:03;4.10;;;1.30;;
38089;SDS011;23904;52.322;10.232;2022-09-13T15:48:33;4.72;;;1.50;;
38089;SDS011;23904;52.322;10.232;2022-09-13T15:51:04;3.25;;;1.48;;
38089;SDS011;23904;52.322;10.232;2022-09-13T15:53:38;3.53;;;1.23;;
38089;SDS011;23904;52.322;10.232;2022-09-13T15:56:07;4.28;;;1.30;;
38089;SDS011;23904;52.322;10.232;2022-09-13T15:58:41;4.90;;;1.50;;
38089;SDS011;23904;52.322;10.232;2022-09-13T16:01:08;4.22;;;1.35;;
38089;SDS011;23904;52.322;10.232;2022-09-13T16:03:36;4.15;;;1.35;;
38089;SDS011;23904;52.322;10.232;2022-09-13T16:06:03;5.32;;;1.83;;
38089;SDS011;23904;52.322;10.232;2022-09-13T16:08:31;4.68;;;1.33;;
38089;SDS011;23904;52.322;10.232;2022-09-13T16:10:56;5.50;;;1.02;;
38089;SDS011;23904;52.322;10.232;2022-09-13T16:13:22;6.28;;;1.30;;
38089;SDS011;23904;52.322;10.232;2022-09-13T16:15:48;4.20;;;1.48;;
38089;SDS011;23904;52.322;10.232;2022-09-13T16:18:13;6.25;;;1.58;;
38089;SDS011;23904;52.322;10.232;2022-09-13T16:20:41;7.60;;;1.92;;
38089;SDS011;23904;52.322;10.232;2022-09-13T16:23:07;4.00;;;1.42;;
38089;SDS011;23904;52.322;10.232;2022-09-13T16:25:33;5.40;;;1.45;;
38089;SDS011;23904;52.322;10.232;2022-09-13T16:27:59;6.28;;;1.70;;
38089;SDS011;23904;52.322;10.232;2022-09-13T16:30:26;6.53;;;1.50;;
38089;SDS011;23904;52.322;10.232;2022-09-13T16:32:54;5.70;;;1.67;;
38089;SDS011;23904;52.322;10.232;2022-09-13T16:35:20;4.68;;;1.50;;
38089;SDS011;23904;52.322;10.232;2022-09-13T16:37:46;7.50;;;1.50;;
38089;SDS011;23904;52.322;10.232;2022-09-13T16:40:15;5.50;;;1.98;;
38089;SDS011;23904;52.322;10.232;2022-09-13T16:42:42;6.78;;;2.78;;
38089;SDS011;23904;52.322;10.232;2022-09-13T16:45:08;6.32;;;1.73;;
38089;SDS011;23904;52.322;10.232;2022-09-13T16:47:35;3.80;;;1.30;;
38089;SDS011;23904;52.322;10.232;2022-09-13T16:50:00;3.08;;;1.00;;
38089;SDS011;23904;52.322;10.232;2022-09-13T16:52:28;5.10;;;1.20;;
38089;SDS011;23904;52.322;10.232;2022-09-13T16:54:53;5.90;;;1.30;;
38089;SDS011;23904;52.322;10.232;2022-09-13T16:57:20;4.35;;;1.80;;
38089;SDS011;23904;52.322;10.232;2022-09-13T16:59:45;8.02;;;1.52;;
38089;SDS011;23904;52.322;10.232;2022-09-13T17:02:12;5.97;;;1.67;;
38089;SDS011;23904;52.322;10.232;2022-09-13T17:04:38;7.05;;;2.30;;
38089;SDS011;23904;52.322;10.232;2022-09-13T17:07:04;6.47;;;1.80;;
38089;SDS011;23904;52.322;10.232;2022-09-13T17:09:32;4.47;;;1.15;;
38089;SDS011;23904;52.322;10.232;2022-09-13T17:11:58;3.17;;;1.27;;
38089;SDS011;23904;52.322;10.232;2022-09-13T17:14:24;4.95;;;0.98;;
38089;SDS011;23904;52.322;10.232;2022-09-13T17:16:54;8.38;;;2.08;;
38089;SDS011;23904;52.322;10.232;2022-09-13T17:19:22;5.85;;;1.30;;
38089;SDS011;23904;52.322;10.232;2022-09-13T17:21:51;3.47;;;1.20;;
38089;SDS011;23904;52.322;10.232;2022-09-13T17:24:21;4.72;;;1.52;;
38089;SDS011;23904;52.322;10.232;2022-09-13T17:26:49;3.72;;;1.50;;
38089;SDS011;23904;52.322;10.232;2022-09-13T17:29:15;5.22;;;1.65;;
38089;SDS011;23904;52.322;10.232;2022-09-13T17:31:41;7.10;;;1.88;;
38089;SDS011;23904;52.322;10.232;2022-09-13T17:34:07;5.63;;;1.90;;
38089;SDS011;23904;52.322;10.232;2022-09-13T17:36:34;5.97;;;1.98;;
38089;SDS011;23904;52.322;10.232;2022-09-13T17:39:00;5.65;;;1.92;;
38089;SDS011;23904;52.322;10.232;2022-09-13T17:41:26;5.88;;;1.75;;
38089;SDS011;23904;52.322;10.232;2022-09-13T17:43:52;5.65;;;1.67;;
38089;SDS011;23904;52.322;10.232;2022-09-13T17:46:19;6.63;;;2.08;;
38089;SDS011;23904;52.322;10.232;2022-09-13T17:48:50;7.18;;;2.15;;
38089;SDS011;23904;52.322;10.232;2022-09-13T17:51:19;8.00;;;2.08;;
38089;SDS011;23904;52.322;10.232;2022-09-13T17:53:50;5.90;;;2.03;;
38089;SDS011;23904;52.322;10.232;2022-09-13T17:56:22;6.20;;;2.20;;
38089;SDS011;23904;52.322;10.232;2022-09-13T17:58:51;5.10;;;1.97;;
38089;SDS011;23904;52.322;10.232;2022-09-13T18:01:17;6.75;;;2.65;;